createdAt,value
2023-03-16T00:05:27.688Z,2
2023-03-16T00:11:21.410Z,1.9
2023-03-16T00:16:59.868Z,1.9
2023-03-16T00:22:22.513Z,1.9
2023-03-16T00:27:44.645Z,1.8
2023-03-16T00:33:38.103Z,1.8
2023-03-16T00:39:31.772Z,1.8
2023-03-16T00:45:24.459Z,1.7
2023-03-16T00:50:47.324Z,1.6
2023-03-16T00:56:40.863Z,1.6
2023-03-16T01:02:18.509Z,1.5
2023-03-16T01:08:10.934Z,1.5
2023-03-16T01:13:17.423Z,1.4
2023-03-16T01:19:10.092Z,1.3
2023-03-16T01:24:15.290Z,1.3
2023-03-16T01:29:52.551Z,1.3
2023-03-16T01:35:47.124Z,1.3
2023-03-16T01:41:39.064Z,1.2
2023-03-16T01:47:01.484Z,1.1
2023-03-16T01:52:40.624Z,1.1
2023-03-16T01:58:32.761Z,1
2023-03-16T02:03:55.605Z,0.9
2023-03-16T02:09:19.112Z,0.9
2023-03-16T02:15:12.462Z,0.8
2023-03-16T02:20:50.669Z,0.8
2023-03-16T02:26:44.156Z,0.6
2023-03-16T02:32:37.341Z,0.6
2023-03-16T02:38:31.039Z,0.6
2023-03-16T02:44:08.967Z,0.6
2023-03-16T02:49:47.105Z,0.6
2023-03-16T02:55:39.770Z,0.5
2023-03-16T03:01:18.221Z,0.5
2023-03-16T03:06:26.420Z,0.5
2023-03-16T03:12:18.839Z,0.5
2023-03-16T03:18:11.743Z,0.5
2023-03-16T03:24:03.931Z,0.4
2023-03-16T03:29:41.244Z,0.4
2023-03-16T03:35:34.393Z,0.4
2023-03-16T03:40:56.554Z,0.4
2023-03-16T03:46:34.312Z,0.4
2023-03-16T03:51:56.917Z,0.4
2023-03-16T03:57:02.790Z,0.4
2023-03-16T04:02:59.364Z,0.4
2023-03-16T04:08:52.960Z,0.4
2023-03-16T04:14:29.789Z,0.4
2023-03-16T04:20:07.769Z,0.4
2023-03-16T04:25:46.080Z,0.4
2023-03-16T04:31:07.790Z,0.4
2023-03-16T04:36:45.669Z,0.4
2023-03-16T04:42:23.889Z,0.4
2023-03-16T04:48:01.185Z,0.4
2023-03-16T04:53:39.499Z,0.4
2023-03-16T04:59:32.883Z,0.4
2023-03-16T05:05:31.295Z,0.4
2023-03-16T05:11:08.971Z,0.4
2023-03-16T05:16:30.882Z,0.4
2023-03-16T05:22:23.474Z,0.4
2023-03-16T05:28:16.885Z,0.4
2023-03-16T05:33:40.518Z,0.4
2023-03-16T05:39:20.496Z,0.4
2023-03-16T05:45:13.405Z,0.4
2023-03-16T05:50:52.281Z,0.4
2023-03-16T05:56:30.716Z,0.4
2023-03-16T06:02:23.744Z,0.4
2023-03-16T06:08:18.453Z,0.4
2023-03-16T06:14:11.420Z,0.5
2023-03-16T06:20:03.657Z,0.6
2023-03-16T06:25:58.288Z,0.6
2023-03-16T06:31:51.040Z,0.7
2023-03-16T06:37:46.303Z,0.8
2023-03-16T06:43:42.776Z,0.8
2023-03-16T06:49:20.088Z,0.9
2023-03-16T06:54:59.349Z,0.9
2023-03-16T07:00:52.028Z,1.1
2023-03-16T07:06:45.139Z,1.1
2023-03-16T07:12:37.635Z,1.3
2023-03-16T07:18:35.125Z,1.4
2023-03-16T07:24:28.774Z,1.7
2023-03-16T07:30:26.667Z,2.1
2023-03-16T07:36:37.131Z,2.7
2023-03-16T07:42:14.645Z,3.3
2023-03-16T07:47:51.547Z,3.8
2023-03-16T07:53:30.986Z,4.3
2023-03-16T07:59:39.024Z,4.7
2023-03-16T08:05:33.696Z,5.2
2023-03-16T08:11:29.693Z,5.8
2023-03-16T08:17:07.968Z,6.1
2023-03-16T08:23:13.003Z,6.5
2023-03-16T08:29:06.087Z,6.9
2023-03-16T08:34:45.203Z,7.4
2023-03-16T08:40:35.092Z,8.1
2023-03-16T08:46:13.132Z,8.4
2023-03-16T08:51:49.876Z,8.7
2023-03-16T08:57:54.100Z,9
2023-03-16T09:04:00.921Z,9.3
2023-03-16T09:10:01.683Z,9.4
2023-03-16T09:15:39.996Z,9.5
2023-03-16T09:21:50.552Z,9.4
2023-03-16T09:27:28.497Z,9.3
2023-03-16T09:33:25.775Z,9.1
2023-03-16T09:39:19.008Z,8.8
2023-03-16T09:45:00.751Z,8.6
2023-03-16T09:55:53.924Z,8.1
2023-03-16T10:01:31.143Z,8
2023-03-16T10:07:24.259Z,7.9
2023-03-16T10:13:16.763Z,8.1
2023-03-16T10:19:09.248Z,8.2
2023-03-16T10:25:01.757Z,8.4
2023-03-16T10:30:39.278Z,8.6
2023-03-16T10:36:19.447Z,9
2023-03-16T10:42:12.798Z,9.4
2023-03-16T10:48:07.994Z,9.6
2023-03-16T10:54:01.084Z,9.9
2023-03-16T10:59:53.657Z,10.1
2023-03-16T11:05:48.597Z,10.3
2023-03-16T11:11:50.449Z,10.4
2023-03-16T11:17:59.147Z,10.7
2023-03-16T11:23:52.279Z,10.8
2023-03-16T11:29:43.937Z,10.7
2023-03-16T11:35:52.696Z,10.7
2023-03-16T11:41:34.388Z,10.6
2023-03-16T11:47:26.300Z,10.4
2023-03-16T11:53:19.297Z,10.3
2023-03-16T11:58:56.119Z,10.1
2023-03-16T12:05:09.564Z,9.9
2023-03-16T12:10:56.244Z,9.6
2023-03-16T12:17:05.678Z,9.4
2023-03-16T12:22:58.811Z,9.4
2023-03-16T12:28:52.266Z,9.3
2023-03-16T12:34:30.004Z,9.2
2023-03-16T12:40:22.147Z,9
2023-03-16T12:46:15.143Z,8.8
2023-03-16T12:51:52.743Z,8.6
2023-03-16T12:57:32.714Z,8.5
2023-03-16T13:02:54.853Z,8.4
2023-03-16T13:08:38.129Z,8.6
2023-03-16T13:14:15.988Z,8.9
2023-03-16T13:19:57.860Z,9.3
2023-03-16T13:26:06.759Z,9.6
2023-03-16T13:31:29.256Z,9.8
2023-03-16T13:36:35.744Z,9.9
2023-03-16T13:42:17.060Z,10
2023-03-16T13:47:54.831Z,10.2
2023-03-16T13:53:31.332Z,10.4
2023-03-16T13:59:09.893Z,10.6
2023-03-16T14:04:47.070Z,10.4
2023-03-16T14:10:24.810Z,9.9
2023-03-16T14:16:23.287Z,9.3
2023-03-16T14:22:25.308Z,8.8
2023-03-16T14:28:20.473Z,8.1
2023-03-16T14:34:14.415Z,7.6
2023-03-16T14:39:52.640Z,7.1
2023-03-16T14:45:46.442Z,6.8
2023-03-16T14:51:24.648Z,6.4
2023-03-16T14:57:17.554Z,6
2023-03-16T15:03:28.169Z,5.6
2023-03-16T15:09:23.477Z,5.4
2023-03-16T15:15:00.770Z,5.3
2023-03-16T15:20:53.650Z,5.2
2023-03-16T15:26:30.550Z,5.1
2023-03-16T15:32:23.452Z,5
2023-03-16T15:38:01.425Z,4.9
2023-03-16T15:44:06.337Z,4.7
2023-03-16T15:50:05.397Z,4.5
2023-03-16T15:56:06.179Z,4.3
2023-03-16T16:02:14.079Z,4.1
2023-03-16T16:07:51.025Z,3.8
2023-03-16T16:13:12.384Z,3.6
2023-03-16T16:19:33.673Z,3.4
2023-03-16T16:25:10.563Z,3.2
2023-03-16T16:30:47.794Z,3
2023-03-16T16:35:51.547Z,2.8
2023-03-16T16:41:29.769Z,2.7
2023-03-16T16:46:06.511Z,2.5
2023-03-16T16:51:28.880Z,2.4
2023-03-16T16:56:54.092Z,2.3
2023-03-16T17:02:42.057Z,2.1
2023-03-16T17:07:49.631Z,2.1
2023-03-16T17:13:11.940Z,1.9
2023-03-16T17:18:35.824Z,1.9
2023-03-16T17:24:28.952Z,1.8
2023-03-16T17:29:51.660Z,1.8
2023-03-16T17:35:30.088Z,1.7
2023-03-16T17:41:12.067Z,1.6
2023-03-16T17:46:52.070Z,1.6
2023-03-16T17:52:45.009Z,1.6
2023-03-16T17:58:37.949Z,1.5
2023-03-16T18:04:02.489Z,1.4
2023-03-16T18:09:56.161Z,1.3
2023-03-16T18:15:34.517Z,1.3
2023-03-16T18:20:41.474Z,1.2
2023-03-16T18:26:35.156Z,1.1
2023-03-16T18:32:30.289Z,1.1
2023-03-16T18:38:23.558Z,1.1
2023-03-16T18:44:01.580Z,0.9
2023-03-16T18:49:39.421Z,0.9
2023-03-16T18:55:32.614Z,0.9
2023-03-16T19:00:54.370Z,0.9
2023-03-16T19:06:01.573Z,0.9
2023-03-16T19:11:26.009Z,0.9
2023-03-16T19:17:04.330Z,0.8
2023-03-16T19:22:41.652Z,0.8
2023-03-16T19:28:19.504Z,0.8
2023-03-16T19:33:41.843Z,0.8
2023-03-16T19:39:48.985Z,0.7
2023-03-16T19:45:27.095Z,0.7
2023-03-16T19:51:19.864Z,0.6
2023-03-16T19:57:13.129Z,0.6
2023-03-16T20:03:05.888Z,0.6
2023-03-16T20:08:59.536Z,0.6
2023-03-16T20:14:37.454Z,0.6
2023-03-16T20:20:00.790Z,0.5
2023-03-16T20:25:22.505Z,0.5
2023-03-16T20:31:15.771Z,0.5
2023-03-16T20:36:53.287Z,0.5
2023-03-16T20:42:32.143Z,0.5
2023-03-16T20:48:10.050Z,0.5
2023-03-16T20:53:31.089Z,0.5
2023-03-16T20:59:24.237Z,0.5
2023-03-16T21:05:17.610Z,0.5
2023-03-16T21:11:19.382Z,0.5
2023-03-16T21:16:43.296Z,0.5
2023-03-16T21:22:35.083Z,0.4
2023-03-16T21:28:29.033Z,0.4
2023-03-16T21:34:22.270Z,0.4
2023-03-16T21:40:16.641Z,0.4
2023-03-16T21:46:10.021Z,0.4
2023-03-16T21:52:03.821Z,0.4
2023-03-16T21:57:43.210Z,0.4
2023-03-16T22:03:16.573Z,0.4
2023-03-16T22:09:27.069Z,0.4
2023-03-16T22:15:05.008Z,0.4
2023-03-16T22:20:57.543Z,0.4
2023-03-16T22:26:36.300Z,0.4
2023-03-16T22:32:13.626Z,0.4
2023-03-16T22:38:06.009Z,0.4
2023-03-16T22:43:58.226Z,0.4
2023-03-16T22:49:35.715Z,0.4
2023-03-16T22:55:28.930Z,0.4
2023-03-16T23:01:22.777Z,0.4
2023-03-16T23:07:16.478Z,0.4
2023-03-16T23:12:55.895Z,0.4
2023-03-16T23:18:49.319Z,0.4
2023-03-16T23:25:03.118Z,0.3
2023-03-16T23:30:40.539Z,0.3
2023-03-16T23:36:18.885Z,0.4
2023-03-16T23:41:56.324Z,0.3
2023-03-16T23:47:33.385Z,0.3
2023-03-16T23:53:11.387Z,0.3
2023-03-16T23:58:47.956Z,0.3
